Latest Weather Observations for Wagga Wagga

IDN60801

Issued at 9:04 pm EST Sunday 26 April 2015 (issued every 30 minutes, with the page automatically refreshed every 10 minutes)

About weather observations | Map of weather stations | Latest weather observations for NSW | Other Formats
Station Details ID: 072150 Name: WAGGA WAGGA AMO Lat: -35.16 Lon: 147.46 Height: 212.0 m
Data from the previous 72 hours. | See also: Recent months at Wagga Wagga
Date/Time
EST
Temp
°C
App
Temp
°C
Dew
Point
Rel
Hum
%
Delta-T
°C
Wind Press
QNH
hPa
Press
MSL
hPa
Rain
since 9 am
mm
Dir
 
Spd
km/h
Gust
km/h
Spd
kts
Gust
kts
26/09:00pm 11.1 7.2 5.5 68 2.6 W 15 19 8 10 1018.3 1018.0 0.0
26/08:30pm 11.7 7.8 5.5 66 2.9 W 15 22 8 12 1018.1 1017.8 0.0
26/08:00pm 12.0 7.4 5.6 65 3.0 W 19 30 10 16 1017.7 1017.4 0.0
26/07:30pm 12.3 7.6 6.0 65 3.0 WSW 20 28 11 15 1017.4 1017.1 0.0
26/07:00pm 12.8 8.3 6.3 64 3.1 WSW 19 26 10 14 1017.2 1016.9 0.0
26/06:30pm 13.4 7.2 6.1 61 3.5 WSW 28 35 15 19 1016.8 1016.5 0.0
26/06:00pm 14.1 9.3 5.8 57 4.0 W 20 26 11 14 1016.4 1016.1 0.0
26/05:30pm 14.8 10.6 5.9 55 4.3 WSW 17 20 9 11 1015.9 1015.6 0.0
26/05:00pm 15.4 10.8 6.7 56 4.3 WSW 20 28 11 15 1015.6 1015.3 0.0
26/04:30pm 16.0 10.3 6.7 54 4.6 W 26 33 14 18 1015.2 1014.9 0.0
26/04:00pm 17.1 12.7 7.2 52 5.0 WSW 20 30 11 16 1014.9 1014.5 0.0
26/03:30pm 18.0 12.2 7.9 51 5.2 W 28 35 15 19 1014.5 1014.1 0.0
26/03:00pm 17.9 12.2 8.2 53 5.0 WSW 28 39 15 21 1014.2 1013.8 0.0
26/02:30pm 18.2 13.1 9.1 55 4.8 WSW 26 33 14 18 1013.9 1013.6 0.0
26/02:00pm 17.8 13.0 8.8 55 4.7 WSW 24 30 13 16 1013.8 1013.5 0.0
26/01:30pm 17.9 13.6 9.4 57 4.5 SW 22 32 12 17 1013.8 1013.5 0.0
26/01:00pm 17.0 13.1 9.4 61 4.0 WSW 20 32 11 17 1013.8 1013.5 0.0
26/12:30pm 16.2 12.2 9.1 63 3.7 WSW 20 28 11 15 1013.8 1013.5 0.0
26/12:00pm 16.6 12.7 9.6 63 3.7 WSW 20 32 11 17 1013.9 1013.6 0.0
26/11:30am 15.9 11.7 9.8 67 3.2 W 22 30 12 16 1014.3 1013.9 0.0
26/11:00am 15.0 11.3 10.3 73 2.5 WSW 20 28 11 15 1014.2 1013.8 0.0
26/10:30am 12.9 8.6 9.4 79 1.8 W 22 30 12 16 1014.3 1013.9 0.0
26/10:00am 13.7 10.2 10.1 79 1.9 WSW 19 26 10 14 1014.0 1013.7 0.0
26/09:30am 13.0 8.7 9.3 78 1.9 WSW 22 28 12 15 1014.0 1013.7 0.0
26/09:00am 12.0 9.0 9.2 83 1.4 WSW 15 19 8 10 1013.9 1013.6 1.6
26/08:30am 11.5 8.1 9.3 86 1.1 WSW 17 20 9 11 1013.7 1013.4 1.6
26/08:13am 12.0 9.4 9.2 83 1.4 W 13 17 7 9 1013.4 1013.1 1.6
26/08:00am 11.6 9.4 9.4 86 1.1 W 11 13 6 7 1013.2 1012.9 1.6
26/07:30am 10.9 8.3 9.3 90 0.8 WSW 13 15 7 8 1012.8 1012.5 1.6
26/07:00am 10.9 8.3 9.5 91 0.7 WSW 13 19 7 10 1012.3 1012.0 1.6
26/06:30am 10.8 8.6 9.4 91 0.7 W 11 15 6 8 1012.0 1011.7 1.6
26/05:30am 11.1 8.2 9.7 91 0.7 WSW 15 22 8 12 1011.5 1011.2 1.6
26/05:00am 11.3 10.0 9.9 91 0.7 WSW 7 9 4 5 1011.4 1011.1 1.6
26/04:30am 11.3 9.6 9.9 91 0.7 W 9 13 5 7 1011.0 1010.7 1.6
26/04:00am 11.4 8.9 9.8 90 0.8 W 13 17 7 9 1010.7 1010.3 1.6
26/03:30am 11.4 9.7 10.0 91 0.7 WSW 9 13 5 7 1010.6 1010.2 1.6
26/03:00am 11.3 9.6 9.9 91 0.7 W 9 11 5 6 1010.3 1009.9 1.6
26/02:30am 11.2 9.1 9.8 91 0.7 WNW 11 13 6 7 1010.4 1010.0 1.6
26/02:00am 11.1 9.3 9.5 90 0.8 W 9 11 5 6 1010.5 1010.1 1.6
26/01:30am 10.8 9.0 9.4 91 0.7 W 9 13 5 7 1010.6 1010.2 1.6
26/01:03am 10.4 8.1 9.0 91 0.7 WNW 11 13 6 7 1010.3 1009.9 1.6
26/01:00am 10.4 8.1 9.0 91 0.7 WNW 11 13 6 7 1010.3 1009.9 1.6
26/12:30am 10.6 7.9 9.0 90 0.8 W 13 15 7 8 1010.3 1009.9 1.6
26/12:00am 10.8 8.2 9.2 90 0.8 W 13 17 7 9 1010.1 1009.7 1.6
 
Date/Time
EST
Temp
°C
App
Temp
°C
Dew
Point
Rel
Hum
%
Delta-T
°C
Wind Press
QNH
hPa
Press
MSL
hPa
Rain
since 9 am
mm
Dir
 
Spd
km/h
Gust
km/h
Spd
kts
Gust
kts
25/11:30pm 11.2 8.6 9.4 89 0.9 W 13 17 7 9 1010.1 1009.7 1.6
25/11:00pm 11.3 8.3 9.3 87 1.0 WSW 15 17 8 9 1010.2 1009.8 1.6
25/10:30pm 11.5 9.2 9.1 85 1.2 W 11 15 6 8 1010.1 1009.7 1.6
25/10:00pm 11.7 9.3 8.7 82 1.5 W 11 13 6 7 1010.4 1010.0 1.6
25/09:30pm 12.3 9.5 8.5 77 1.9 W 13 17 7 9 1010.1 1009.7 1.6
25/09:00pm 12.6 9.9 8.9 78 1.9 WSW 13 19 7 10 1010.0 1009.6 1.6
25/08:30pm 12.6 11.0 10.3 86 1.2 NW 9 13 5 7 1009.8 1009.4 1.6
25/08:00pm 12.8 11.2 10.1 84 1.4 NW 9 11 5 6 1009.7 1009.3 1.6
25/07:30pm 12.8 11.4 9.5 80 1.7 N 7 11 4 6 1009.1 1008.8 1.6
25/07:00pm 12.9 11.1 9.6 80 1.7 NNW 9 13 5 7 1008.9 1008.6 1.6
25/06:30pm 12.8 11.4 9.7 81 1.6 SW 7 11 4 6 1008.6 1008.3 1.6
25/06:00pm 12.6 12.2 9.9 83 1.4 SW 2 11 1 6 1008.2 1007.9 1.6
25/05:30pm 12.9 9.8 9.0 77 2.0 SSE 15 20 8 11 1007.5 1007.2 1.6
25/05:00pm 13.6 10.0 9.8 78 2.0 SE 19 26 10 14 1007.6 1007.3 1.6
25/04:30pm 13.9 10.3 10.7 81 1.7 E 20 26 11 14 1007.3 1007.0 1.6
25/04:00pm 16.0 12.1 7.0 55 4.5 WSW 17 22 9 12 1007.1 1006.8 1.6
25/03:30pm 16.8 13.5 10.9 68 3.2 S 19 26 10 14 1006.7 1006.3 1.6
25/03:00pm 15.8 12.0 11.2 74 2.5 SW 22 28 12 15 1006.3 1005.9 1.6
25/02:30pm 15.3 11.5 9.8 69 2.9 SW 20 33 11 18 1006.2 1005.8 1.0
25/02:17pm 14.9 12.4 11.0 77 2.1 SSW 15 20 8 11 1006.0 1005.6 1.0
25/02:00pm 15.7 12.3 10.5 71 2.8 SW 19 28 10 15 1005.8 1005.4 0.0
25/01:30pm 17.1 14.8 10.6 65 3.5 SW 13 19 7 10 1005.8 1005.4 0.0
25/01:00pm 17.7 15.7 10.3 62 4.0 SW 11 17 6 9 1006.2 1005.8 0.0
25/12:30pm 18.2 16.7 10.5 60 4.2 WSW 9 15 5 8 1006.3 1005.9 0.0
25/12:00pm 17.3 15.8 10.4 64 3.7 NNW 9 15 5 8 1006.9 1006.6 0.0
25/11:30am 17.7 16.8 10.7 63 3.8 NNE 6 11 3 6 1007.3 1007.0 0.0
25/11:00am 17.4 15.4 10.1 62 3.9 NE 11 17 6 9 1007.5 1007.2 0.0
25/10:30am 16.6 14.6 10.3 66 3.4 E 11 19 6 10 1007.6 1007.3 0.0
25/10:00am 16.1 13.1 10.7 70 2.9 ENE 17 20 9 11 1007.7 1007.4 0.0
25/09:30am 15.1 12.9 10.8 75 2.3 E 13 17 7 9 1007.9 1007.6 0.0
25/09:00am 14.4 11.6 11.4 82 1.6 E 17 19 9 10 1007.6 1007.3 3.6
25/08:30am 13.7 11.8 11.7 88 1.1 E 13 19 7 10 1007.8 1007.5 3.6
25/08:00am 12.4 10.7 11.1 92 0.7 E 11 15 6 8 1007.5 1007.2 3.6
25/07:30am 12.5 9.7 11.2 92 0.7 E 17 20 9 11 1007.4 1007.1 3.6
25/07:00am 12.6 11.3 11.1 91 0.8 E 9 13 5 7 1007.1 1006.8 3.6
25/06:30am 12.2 9.8 11.3 94 0.5 ESE 15 19 8 10 1006.9 1006.6 3.6
25/06:00am 11.9 9.8 11.3 96 0.3 E 13 17 7 9 1007.3 1007.0 3.6
25/05:36am 12.0 10.3 11.1 94 0.5 NW 11 15 6 8 1007.6 1007.3 3.4
25/05:30am 12.1 10.8 11.2 94 0.5 W 9 13 5 7 1008.0 1007.7 2.8
25/05:19am 11.9 10.9 11.1 95 0.4 WSW 7 13 4 7 1007.6 1007.3 2.6
25/05:00am 12.1 8.6 10.8 92 0.7 W 20 33 11 18 1007.1 1006.8 2.2
25/04:55am 12.5 7.3 10.4 87 1.1 WNW 28 39 15 21 1007.7 1007.4 1.0
25/04:45am 13.4 9.5 9.3 76 2.1 NNW 20 37 11 20 1007.5 1007.2 0.0
25/04:30am 12.8 10.2 9.5 80 1.7 ESE 13 15 7 8 1006.6 1006.2 0.0
25/04:00am 12.4 9.5 9.5 82 1.5 E 15 17 8 9 1006.6 1006.2 0.0
25/03:30am 12.5 9.9 9.4 81 1.6 E 13 15 7 8 1006.6 1006.2 0.0
25/03:00am 12.3 11.1 9.6 83 1.4 E 6 7 3 4 1007.0 1006.7 0.0
25/02:30am 12.5 10.3 9.4 81 1.6 E 11 15 6 8 1006.9 1006.6 0.0
25/02:00am 11.2 9.7 9.0 86 1.1 E 7 7 4 4 1007.1 1006.8 0.0
25/01:30am 11.7 10.4 9.1 84 1.3 ESE 6 7 3 4 1007.4 1007.1 0.0
25/01:00am 11.9 10.0 8.9 82 1.5 E 9 11 5 6 1007.5 1007.2 0.0
25/12:30am 12.4 10.6 9.5 82 1.5 E 9 9 5 5 1007.7 1007.4 0.0
25/12:00am 12.6 11.2 9.5 81 1.6 E 7 7 4 4 1007.9 1007.6 0.0
 
Date/Time
EST
Temp
°C
App
Temp
°C
Dew
Point
Rel
Hum
%
Delta-T
°C
Wind Press
QNH
hPa
Press
MSL
hPa
Rain
since 9 am
mm
Dir
 
Spd
km/h
Gust
km/h
Spd
kts
Gust
kts
24/11:30pm 13.5 12.3 9.4 76 2.1 NE 6 7 3 4 1008.1 1007.8 0.0
24/11:00pm 14.1 12.8 10.1 77 2.1 ENE 7 9 4 5 1008.1 1007.8 0.0
24/10:30pm 14.1 12.5 10.3 78 2.0 ESE 9 9 5 5 1008.1 1007.8 0.0
24/10:00pm 15.0 14.3 9.9 71 2.7 NNW 4 7 2 4 1008.2 1007.9 0.0
24/09:30pm 15.0 14.1 9.4 69 2.9 NW 4 9 2 5 1008.3 1008.0 0.0
24/09:00pm 14.7 14.8 10.0 73 2.5 CALM 0 0 0 0 1008.2 1007.9 0.0
24/08:30pm 14.3 13.8 10.7 79 1.9 SW 4 7 2 4 1008.0 1007.7 0.0
24/08:00pm 15.4 13.6 9.5 68 3.1 NW 9 9 5 5 1007.8 1007.5 0.0
24/07:30pm 15.9 14.5 9.4 65 3.4 NW 7 9 4 5 1007.5 1007.2 0.0
24/07:00pm 15.5 14.2 9.8 69 3.0 WNW 7 9 4 5 1007.4 1007.1 0.0
24/06:30pm 16.5 14.7 9.5 63 3.7 WNW 9 11 5 6 1007.2 1006.9 0.0
24/06:00pm 16.6 14.4 9.4 62 3.8 WNW 11 13 6 7 1006.8 1006.4 0.0
24/05:30pm 17.8 14.8 9.1 56 4.6 WNW 15 20 8 11 1006.6 1006.2 0.0
24/05:00pm 19.0 15.7 9.5 54 5.1 WNW 17 26 9 14 1006.5 1006.1 0.0
24/04:30pm 19.1 15.9 9.8 55 5.0 WNW 17 20 9 11 1006.4 1006.0 0.0
24/04:00pm 19.1 15.4 9.4 53 5.2 WNW 19 26 10 14 1006.2 1005.8 0.0
24/03:30pm 19.3 16.1 9.9 54 5.1 WNW 17 22 9 12 1006.1 1005.7 0.0
24/03:00pm 19.3 15.3 8.9 51 5.5 WNW 20 28 11 15 1006.2 1005.8 0.0
24/02:30pm 19.5 16.2 9.7 53 5.3 WNW 17 26 9 14 1006.3 1005.9 0.0
24/02:00pm 19.2 15.3 9.5 53 5.2 WNW 20 28 11 15 1006.4 1006.0 0.0
24/01:30pm 19.2 14.8 10.4 56 4.8 WNW 24 32 13 17 1006.5 1006.1 0.0
24/01:00pm 19.6 15.0 9.8 53 5.3 WNW 24 33 13 18 1006.6 1006.2 0.0
24/12:30pm 19.1 15.6 10.1 56 4.9 WNW 19 28 10 15 1007.0 1006.7 0.0
24/12:00pm 19.5 16.5 10.6 56 4.9 NW 17 26 9 14 1007.2 1006.9 0.0
24/11:30am 18.9 15.2 10.2 57 4.7 WNW 20 28 11 15 1007.6 1007.3 0.0
24/11:00am 19.0 16.8 10.8 59 4.5 NW 13 19 7 10 1007.8 1007.5 0.0
24/10:30am 17.7 16.2 11.9 69 3.2 NW 11 15 6 8 1008.0 1007.7 0.0
24/10:00am 16.8 15.0 12.1 74 2.6 NW 13 15 7 8 1008.1 1007.8 0.0
24/09:30am 16.4 14.7 12.6 78 2.1 NW 13 17 7 9 1008.4 1008.1 0.0
24/09:00am 16.1 14.8 12.5 79 2.0 NNW 11 13 6 7 1008.3 1008.0 0.0
24/08:30am 15.5 14.2 12.6 83 1.6 NW 11 13 6 7 1008.3 1008.0 0.0
24/08:00am 15.4 14.1 12.5 83 1.6 N 11 13 6 7 1008.1 1007.8 0.0
24/07:30am 15.3 14.8 12.6 84 1.5 NNW 7 11 4 6 1007.7 1007.4 0.0
24/07:00am 15.1 14.6 12.8 86 1.3 N 7 9 4 5 1007.7 1007.4 0.0
24/06:30am 14.8 14.6 13.0 89 1.0 NNE 6 7 3 4 1007.3 1007.0 0.0
24/06:00am 15.0 14.8 13.0 88 1.1 NNW 6 7 3 4 1007.3 1007.0 0.0
24/05:30am 15.1 14.3 12.8 86 1.3 NNW 9 11 5 6 1007.3 1007.0 0.0
24/05:00am 15.5 14.9 12.2 81 1.8 N 7 9 4 5 1007.3 1007.0 0.0
24/04:30am 15.6 14.6 12.2 80 1.9 N 9 13 5 7 1007.3 1007.0 0.0
24/04:00am 15.4 14.7 12.1 81 1.8 NW 7 9 4 5 1007.4 1007.1 0.0
24/03:30am 15.8 15.2 12.2 79 2.0 N 7 9 4 5 1007.3 1007.0 0.0
24/03:00am 15.6 14.6 12.4 81 1.8 NNW 9 13 5 7 1007.6 1007.3 0.0
24/02:30am 16.3 15.7 12.2 77 2.3 N 7 9 4 5 1007.8 1007.5 0.0
24/02:00am 16.8 16.4 12.5 76 2.4 N 6 9 3 5 1008.1 1007.8 0.0
24/01:30am 16.9 16.3 12.4 75 2.5 NNE 7 9 4 5 1008.2 1007.9 0.0
24/01:00am 17.0 16.4 12.3 74 2.6 NE 7 11 4 6 1008.4 1008.1 0.0
24/12:30am 16.6 16.4 13.1 80 2.0 N 6 9 3 5 1009.0 1008.7 0.0
24/12:00am 17.2 16.8 13.0 76 2.4 NNE 7 9 4 5 1009.3 1008.9 0.0
 
Date/Time
EST
Temp
°C
App
Temp
°C
Dew
Point
Rel
Hum
%
Delta-T
°C
Wind Press
QNH
hPa
Press
MSL
hPa
Rain
since 9 am
mm
Dir
 
Spd
km/h
Gust
km/h
Spd
kts
Gust
kts
23/11:30pm 17.6 16.8 12.8 73 2.7 NE 9 9 5 5 1009.4 1009.0 0.0
23/11:00pm 18.1 17.7 12.4 69 3.2 ENE 6 7 3 4 1009.4 1009.0 0.0
23/10:30pm 18.2 17.7 12.5 69 3.2 ENE 7 9 4 5 1009.4 1009.0 0.0
23/10:00pm 18.5 17.6 12.7 69 3.3 NNE 9 11 5 6 1009.8 1009.4 0.0
23/09:30pm 18.4 18.0 12.9 70 3.1 ENE 7 9 4 5 1009.8 1009.4 0.0

Other Formats:

Comma delimited format used in spreadsheet applications
http://www.bom.gov.au/fwo/IDN60801/IDN60801.94910.axf

JavaScript Object Notation format (JSON) in row-major order
http://www.bom.gov.au/fwo/IDN60801/IDN60801.94910.json